Levelroad, Alabama
Current Conditions -  °F | °C
As of 8:55 PM on Tuesday 25 Nov 2014 (Local Time) from KLGC Reporting Station
Overcast Overcast  
Wind Chill: 52°   Ceiling: 10000
Heat Index: 52°   Visibility: 10mi
Dew Point: 47°   Wind: 3mph
Humidity: 83%   Direction: 270°W
Pressure: 30.07"   Gusts: NA
Location:  33.1661°N, 85.5111°W
Report Text: KLGC 260255Z AUTO 27003KT 10SM OVC100 11/08 A3007 RMK AO2 T01100082
Loading
Personal Weather Stations






























Interactive Weather Map New forecast layout! Learn more

10-Day Weather Forecast

Advertisements
Track Severe Weather on mobile